Kezdőlap
METAR-TAF:

METAR-TAF

Repülőterek :

Emmen, Svájc

földrajzi szélesség: 47-05-32N, földrajzi hosszúság: 8-18-16E, magasság: 426 m

Jelenlegi meteorológiai megfigyelések

A jelentés 17 perccel ezelõtt készült, 14:50 UTC
Dél-délnyugati szél 4 kt, dél-délkeleti és délnyugati között változik
Hőmérséklet 4°C
Páratartalom 81%
Légköri nyomás 1019 hPa
Látótávolság 10 km, vagy több
felhőtlen 1500 m magasságban, és nincs gomolyfelhõ

METAR: LSME 061450Z 20004KT 160V230 CAVOK 04/01 Q1019 RMK BLU

Idő: 16:07 (15:07 UTC)


TAF: hiányzik

Meteorológiai megfigyelések és előrejelzések több, mint 4000 repülőtéren (METAR és TAF jelentéseket).

A térképen piros és sárga pontok jelzik az elérhető meteorológiai állomásokat.

Mozgassa az egeret a pont fölött, hogy megjelenjen az állomás neve.

Azután kattintson az időjárási megfigyelések és előrejelzések megtekintéséhez.

A térkép megváltoztatása: kattintson a fekete keresztel jelölt zöld gombra ráközelítéshez, a vonallal jelölt zöld gombra távolításhoz, vagy a zöld nyilakra a szomszédos térképek eléréséhez.


METAR-TAF: